Time,TemperatureF,DewpointF,PressureIn,WindDirection,WindDirectionDegrees,WindSpeedMPH,WindSpeedGustMPH,Humidity,HourlyPrecipIn,Conditions,Clouds,dailyrainin,SoftwareType,DateUTC
2013-04-04 00:00:00,41.6,32.6,30.06,SSW,196,10.0,14.0,70,0.00,,CLR,0.00,VWS V14.01,2013-04-04 05:00:00,
2013-04-04 00:02:00,41.3,32.3,30.06,SSW,194,10.0,10.0,70,0.00,,OVC100,0.00,VWS V14.01,2013-04-04 05:02:00,
2013-04-04 00:05:00,41.9,32.5,30.06,South,190,9.0,13.0,69,0.00,,CLR,0.00,VWS V14.01,2013-04-04 05:05:00,
2013-04-04 00:07:00,41.8,32.4,30.06,South,175,6.0,14.0,69,0.00,,OVC100,0.00,VWS V14.01,2013-04-04 05:07:00,
2013-04-04 00:10:00,42.3,32.5,30.05,SSW,205,18.0,18.0,68,0.00,,CLR,0.00,VWS V14.01,2013-04-04 05:10:00,
2013-04-04 00:12:00,42.2,32.4,30.05,SSW,198,17.0,19.0,68,0.00,,OVC100,0.00,VWS V14.01,2013-04-04 05:12:00,
2013-04-04 00:15:00,42.4,32.2,30.05,SSW,195,10.0,10.0,67,0.00,,CLR,0.00,VWS V14.01,2013-04-04 05:15:00,
2013-04-04 00:17:00,42.4,32.6,30.05,South,185,11.0,13.0,68,0.00,,OVC100,0.00,VWS V14.01,2013-04-04 05:17:00,
2013-04-04 00:20:00,42.4,32.2,30.06,South,180,18.0,18.0,67,0.00,,CLR,0.00,VWS V14.01,2013-04-04 05:20:00,
2013-04-04 00:22:00,42.3,32.1,30.06,SSW,203,10.0,15.0,67,0.00,,OVC100,0.00,VWS V14.01,2013-04-04 05:22:00,
2013-04-04 00:25:00,42.3,32.1,30.06,South,181,6.0,11.0,67,0.00,,CLR,0.00,VWS V14.01,2013-04-04 05:25:00,
2013-04-04 00:28:00,42.3,32.1,30.06,SSW,198,11.0,13.0,67,0.00,,OVC100,0.00,VWS V14.01,2013-04-04 05:28:00,
2013-04-04 00:30:00,42.1,32.3,30.06,SSW,195,9.0,16.0,68,0.00,,CLR,0.00,VWS V14.01,2013-04-04 05:30:00,
2013-04-04 00:33:00,42.1,32.3,30.06,SSW,211,12.0,13.0,68,0.00,,OVC100,0.00,VWS V14.01,2013-04-04 05:33:00,
2013-04-04 00:35:00,41.9,32.1,30.06,South,175,11.0,11.0,68,0.00,,CLR,0.00,VWS V14.01,2013-04-04 05:35:00,
2013-04-04 00:38:00,41.9,32.1,30.06,South,169,13.0,13.0,68,0.00,,FEW100,0.00,VWS V14.01,2013-04-04 05:38:00,
2013-04-04 00:40:00,41.8,32.0,30.06,SW,217,10.0,13.0,68,0.00,,CLR,0.00,VWS V14.01,2013-04-04 05:40:00,
2013-04-04 00:43:00,41.7,31.9,30.06,SSW,203,14.0,14.0,68,0.00,,FEW100,0.00,VWS V14.01,2013-04-04 05:43:00,
2013-04-04 00:45:00,41.9,32.1,30.06,South,183,10.0,12.0,68,0.00,,CLR,0.00,VWS V14.01,2013-04-04 05:45:00,
2013-04-04 00:48:00,41.9,32.1,30.06,South,187,11.0,17.0,68,0.00,,FEW100,0.00,VWS V14.01,2013-04-04 05:48:00,
2013-04-04 00:50:00,41.8,32.0,30.07,SSW,213,5.0,10.0,68,0.00,,CLR,0.00,VWS V14.01,2013-04-04 05:50:00,
2013-04-04 00:53:00,41.8,32.0,30.07,SSW,196,6.0,11.0,68,0.00,,FEW100,0.00,VWS V14.01,2013-04-04 05:53:00,
2013-04-04 00:55:00,41.8,32.0,30.06,SSE,166,5.0,10.0,68,0.00,,CLR,0.00,VWS V14.01,2013-04-04 05:55:00,
2013-04-04 00:58:00,41.8,32.0,30.06,SW,226,2.0,3.0,68,0.00,,FEW100,0.00,VWS V14.01,2013-04-04 05:58:00,
2013-04-04 01:00:00,41.6,31.8,30.06,South,173,5.0,7.0,68,0.00,,CLR,0.00,VWS V14.01,2013-04-04 06:00:00,
2013-04-04 01:03:00,41.6,31.8,30.06,SSW,203,5.0,7.0,68,0.00,,FEW100,0.00,VWS V14.01,2013-04-04 06:03:00,
2013-04-04 01:05:00,41.3,31.9,30.06,South,190,7.0,9.0,69,0.00,,CLR,0.00,VWS V14.01,2013-04-04 06:05:00,
2013-04-04 01:08:00,41.3,31.9,30.06,South,171,9.0,11.0,69,0.00,,FEW100,0.00,VWS V14.01,2013-04-04 06:08:00,
2013-04-04 01:10:00,41.2,31.8,30.06,South,190,13.0,13.0,69,0.00,,CLR,0.00,VWS V14.01,2013-04-04 06:10:00,
2013-04-04 01:13:00,41.2,31.8,30.06,SSW,202,10.0,11.0,69,0.00,,FEW100,0.00,VWS V14.01,2013-04-04 06:13:00,
2013-04-04 01:15:00,41.0,31.6,30.05,South,172,6.0,9.0,69,0.00,,CLR,0.00,VWS V14.01,2013-04-04 06:15:00,
2013-04-04 01:18:00,41.0,31.6,30.05,South,172,6.0,9.0,69,0.00,,FEW100,0.00,VWS V14.01,2013-04-04 06:18:00,
2013-04-04 01:20:00,41.1,31.7,30.05,South,173,11.0,13.0,69,0.00,,CLR,0.00,VWS V14.01,2013-04-04 06:20:00,
2013-04-04 01:23:00,41.1,31.7,30.05,South,173,11.0,13.0,69,0.00,,FEW100,0.00,VWS V14.01,2013-04-04 06:23:00,
2013-04-04 01:25:00,41.3,31.5,30.05,SW,222,17.0,17.0,68,0.00,,CLR,0.00,VWS V14.01,2013-04-04 06:25:00,
2013-04-04 01:28:00,41.3,31.5,30.05,SW,222,17.0,17.0,68,0.00,,FEW100,0.00,VWS V14.01,2013-04-04 06:28:00,
2013-04-04 01:30:00,41.4,31.6,30.05,South,186,10.0,11.0,68,0.00,,CLR,0.00,VWS V14.01,2013-04-04 06:30:00,
2013-04-04 01:33:00,41.4,31.6,30.05,South,186,10.0,11.0,68,0.00,,FEW100,0.00,VWS V14.01,2013-04-04 06:33:00,
2013-04-04 01:35:00,41.5,31.7,30.04,South,178,14.0,14.0,68,0.00,,CLR,0.00,VWS V14.01,2013-04-04 06:35:00,
2013-04-04 01:38:00,41.5,31.7,30.04,South,178,14.0,14.0,68,0.00,,OVC110,0.00,VWS V14.01,2013-04-04 06:38:00,
2013-04-04 01:40:00,41.4,31.6,30.03,South,180,11.0,11.0,68,0.00,,CLR,0.00,VWS V14.01,2013-04-04 06:40:00,
2013-04-04 01:43:00,41.4,31.6,30.03,South,180,11.0,11.0,68,0.00,,OVC110,0.00,VWS V14.01,2013-04-04 06:43:00,
2013-04-04 01:45:00,41.4,31.6,30.03,SSW,211,16.0,16.0,68,0.00,,CLR,0.00,VWS V14.01,2013-04-04 06:45:00,
2013-04-04 01:48:00,41.4,31.6,30.03,SSW,211,16.0,16.0,68,0.00,,OVC110,0.00,VWS V14.01,2013-04-04 06:48:00,
2013-04-04 01:50:00,41.4,32.0,30.03,SSW,206,14.0,16.0,69,0.00,,CLR,0.00,VWS V14.01,2013-04-04 06:50:00,
2013-04-04 01:53:00,41.4,32.0,30.03,SSW,206,14.0,16.0,69,0.00,,OVC110,0.00,VWS V14.01,2013-04-04 06:53:00,
2013-04-04 01:55:00,41.4,32.0,30.03,SSW,209,6.0,10.0,69,0.00,,CLR,0.00,VWS V14.01,2013-04-04 06:55:00,
2013-04-04 01:58:00,41.4,32.0,30.03,SSW,209,6.0,10.0,69,0.00,,OVC110,0.00,VWS V14.01,2013-04-04 06:58:00,
2013-04-04 02:00:00,41.1,31.7,30.02,South,174,16.0,16.0,69,0.00,,CLR,0.00,VWS V14.01,2013-04-04 07:00:00,
2013-04-04 02:04:00,41.1,31.7,30.02,South,185,11.0,16.0,69,0.00,,OVC110,0.00,VWS V14.01,2013-04-04 07:04:00,
2013-04-04 02:05:00,41.0,32.0,30.02,SSW,202,14.0,18.0,70,0.00,,CLR,0.00,VWS V14.01,2013-04-04 07:05:00,
2013-04-04 02:10:00,41.0,32.0,30.02,South,174,14.0,17.0,70,0.00,,OVC110,0.00,VWS V14.01,2013-04-04 07:10:00,
2013-04-04 02:15:00,40.9,31.9,30.02,SSW,206,6.0,14.0,70,0.00,,OVC110,0.00,VWS V14.01,2013-04-04 07:15:00,
2013-04-04 02:20:00,40.8,32.1,30.02,SSW,201,10.0,10.0,71,0.00,,OVC110,0.00,VWS V14.01,2013-04-04 07:20:00,
2013-04-04 02:25:00,40.6,32.0,30.03,South,184,12.0,12.0,71,0.00,,OVC110,0.00,VWS V14.01,2013-04-04 07:25:00,
2013-04-04 02:30:00,40.5,31.9,30.03,SW,220,7.0,7.0,71,0.00,,OVC110,0.00,VWS V14.01,2013-04-04 07:30:00,
2013-04-04 02:35:00,40.5,31.9,30.03,South,188,4.0,4.0,71,0.00,,OVC110,0.00,VWS V14.01,2013-04-04 07:35:00,
2013-04-04 02:40:00,40.3,32.0,30.04,SSW,213,0.0,2.0,72,0.00,,SCT110,0.00,VWS V14.01,2013-04-04 07:40:00,
2013-04-04 02:45:00,40.1,31.8,30.04,SE,133,3.0,3.0,72,0.00,,SCT110,0.00,VWS V14.01,2013-04-04 07:45:00,
2013-04-04 02:50:00,40.0,31.7,30.03,SSW,200,4.0,7.0,72,0.00,,SCT110,0.00,VWS V14.01,2013-04-04 07:50:00,
2013-04-04 02:55:00,40.1,32.2,30.03,SSW,209,3.0,3.0,73,0.00,,SCT110,0.00,VWS V14.01,2013-04-04 07:55:00,
2013-04-04 03:00:00,40.0,32.1,30.04,SSW,199,4.0,4.0,73,0.00,,SCT110,0.00,VWS V14.01,2013-04-04 08:00:00,
2013-04-04 03:05:00,39.8,31.9,30.03,WSW,240,1.0,4.0,73,0.00,,SCT110,0.00,VWS V14.01,2013-04-04 08:05:00,
2013-04-04 03:10:00,39.8,31.9,30.03,South,189,5.0,5.0,73,0.00,,CLR,0.00,VWS V14.01,2013-04-04 08:10:00,
2013-04-04 03:11:00,39.8,31.9,30.03,South,178,4.0,4.0,73,0.00,,SCT110,0.00,VWS V14.01,2013-04-04 08:11:00,
2013-04-04 03:15:00,39.7,32.1,30.03,SSW,196,3.0,4.0,74,0.00,,CLR,0.00,VWS V14.01,2013-04-04 08:15:00,
2013-04-04 03:16:00,39.7,32.1,30.03,SSW,209,7.0,7.0,74,0.00,,SCT110,0.00,VWS V14.01,2013-04-04 08:16:00,
2013-04-04 03:20:00,39.7,32.1,30.03,SSW,209,3.0,3.0,74,0.00,,CLR,0.00,VWS V14.01,2013-04-04 08:20:00,
2013-04-04 03:21:00,39.7,32.1,30.03,WSW,250,3.0,3.0,74,0.00,,SCT110,0.00,VWS V14.01,2013-04-04 08:21:00,
2013-04-04 03:25:00,39.6,32.0,30.03,SSW,207,2.0,2.0,74,0.00,,CLR,0.00,VWS V14.01,2013-04-04 08:25:00,
2013-04-04 03:26:00,39.6,32.0,30.03,SW,215,6.0,7.0,74,0.00,,SCT110,0.00,VWS V14.01,2013-04-04 08:26:00,
2013-04-04 03:30:00,39.5,32.2,30.03,West,259,5.0,5.0,75,0.00,,CLR,0.00,VWS V14.01,2013-04-04 08:30:00,
2013-04-04 03:31:00,39.5,32.2,30.03,South,171,0.0,1.0,75,0.00,,SCT110,0.00,VWS V14.01,2013-04-04 08:31:00,
2013-04-04 03:35:00,39.3,32.4,30.03,SW,215,3.0,5.0,76,0.00,,CLR,0.00,VWS V14.01,2013-04-04 08:35:00,
2013-04-04 03:36:00,39.4,32.2,30.03,SW,221,2.0,3.0,75,0.00,,CLR,0.00,VWS V14.01,2013-04-04 08:36:00,
2013-04-04 03:40:00,39.0,32.1,30.03,SSW,195,5.0,5.0,76,0.00,,CLR,0.00,VWS V14.01,2013-04-04 08:40:00,
2013-04-04 03:41:00,39.2,32.3,30.03,WSW,242,0.0,1.0,76,0.00,,CLR,0.00,VWS V14.01,2013-04-04 08:41:00,
2013-04-04 03:45:00,38.8,32.2,30.03,SSW,196,0.0,0.0,77,0.00,,CLR,0.00,VWS V14.01,2013-04-04 08:45:00,
2013-04-04 03:46:00,38.9,32.0,30.03,WSW,242,1.0,3.0,76,0.00,,CLR,0.00,VWS V14.01,2013-04-04 08:46:00,
2013-04-04 03:50:00,38.6,32.0,30.03,SW,215,0.0,1.0,77,0.00,,CLR,0.00,VWS V14.01,2013-04-04 08:50:00,
2013-04-04 03:51:00,38.7,32.1,30.03,SSW,194,2.0,2.0,77,0.00,,CLR,0.00,VWS V14.01,2013-04-04 08:51:00,
2013-04-04 03:55:00,38.4,32.2,30.03,WSW,257,1.0,1.0,78,0.00,,CLR,0.00,VWS V14.01,2013-04-04 08:55:00,
2013-04-04 03:56:00,38.5,31.9,30.03,SSW,213,2.0,3.0,77,0.00,,CLR,0.00,VWS V14.01,2013-04-04 08:56:00,
2013-04-04 04:00:00,38.2,32.0,30.04,NW,304,5.0,5.0,78,0.00,,CLR,0.00,VWS V14.01,2013-04-04 09:00:00,
2013-04-04 04:02:00,38.3,32.0,30.04,WSW,248,1.0,4.0,78,0.00,,CLR,0.00,VWS V14.01,2013-04-04 09:02:00,
2013-04-04 04:05:00,38.2,32.3,30.04,WSW,253,4.0,4.0,79,0.00,,CLR,0.00,VWS V14.01,2013-04-04 09:05:00,
2013-04-04 04:07:00,38.2,32.3,30.04,SW,236,2.0,3.0,79,0.00,,CLR,0.00,VWS V14.01,2013-04-04 09:07:00,
2013-04-04 04:10:00,38.1,32.2,30.04,SW,235,1.0,1.0,79,0.00,,CLR,0.00,VWS V14.01,2013-04-04 09:10:00,
2013-04-04 04:12:00,38.1,32.2,30.04,WSW,246,0.0,2.0,79,0.00,,CLR,0.00,VWS V14.01,2013-04-04 09:12:00,
2013-04-04 04:15:00,38.0,32.4,30.04,WNW,302,2.0,2.0,80,0.00,,CLR,0.00,VWS V14.01,2013-04-04 09:15:00,
2013-04-04 04:17:00,38.0,32.4,30.04,WNW,286,1.0,3.0,80,0.00,,CLR,0.00,VWS V14.01,2013-04-04 09:17:00,
2013-04-04 04:20:00,37.9,32.3,30.04,SW,227,0.0,0.0,80,0.00,,CLR,0.00,VWS V14.01,2013-04-04 09:20:00,
2013-04-04 04:22:00,37.9,32.3,30.04,SW,233,0.0,0.0,80,0.00,,CLR,0.00,VWS V14.01,2013-04-04 09:22:00,
2013-04-04 04:25:00,37.7,32.4,30.04,WNW,296,4.0,4.0,81,0.00,,CLR,0.00,VWS V14.01,2013-04-04 09:25:00,
2013-04-04 04:27:00,37.8,32.5,30.04,West,280,4.0,4.0,81,0.00,,CLR,0.00,VWS V14.01,2013-04-04 09:27:00,
2013-04-04 04:30:00,37.7,32.4,30.05,NNW,330,1.0,1.0,81,0.00,,CLR,0.00,VWS V14.01,2013-04-04 09:30:00,
2013-04-04 04:32:00,37.7,32.4,30.05,WSW,237,5.0,5.0,81,0.00,,CLR,0.00,VWS V14.01,2013-04-04 09:32:00,
2013-04-04 04:35:00,37.6,32.6,30.04,WNW,291,4.0,5.0,82,0.00,,CLR,0.00,VWS V14.01,2013-04-04 09:35:00,
2013-04-04 04:37:00,37.6,32.6,30.04,West,278,2.0,2.0,82,0.00,,CLR,0.00,VWS V14.01,2013-04-04 09:37:00,
2013-04-04 04:40:00,37.5,32.5,30.05,NNW,331,4.0,6.0,82,0.00,,CLR,0.00,VWS V14.01,2013-04-04 09:40:00,
2013-04-04 04:42:00,37.5,32.5,30.05,NW,314,3.0,4.0,82,0.00,,CLR,0.00,VWS V14.01,2013-04-04 09:42:00,
2013-04-04 04:45:00,37.2,32.2,30.04,West,280,1.0,4.0,82,0.00,,CLR,0.00,VWS V14.01,2013-04-04 09:45:00,
2013-04-04 04:47:00,37.2,32.2,30.05,West,269,2.0,2.0,82,0.00,,CLR,0.00,VWS V14.01,2013-04-04 09:47:00,
2013-04-04 04:50:00,37.0,32.3,30.05,NW,307,3.0,3.0,83,0.00,,CLR,0.00,VWS V14.01,2013-04-04 09:50:00,
2013-04-04 04:52:00,37.0,32.3,30.05,NW,322,5.0,10.0,83,0.00,,CLR,0.00,VWS V14.01,2013-04-04 09:52:00,
2013-04-04 04:55:00,36.8,32.1,30.04,WNW,299,4.0,4.0,83,0.00,,CLR,0.00,VWS V14.01,2013-04-04 09:55:00,
2013-04-04 04:57:00,36.8,32.1,30.05,NNW,338,4.0,5.0,83,0.00,,CLR,0.00,VWS V14.01,2013-04-04 09:57:00,
2013-04-04 05:00:00,36.6,31.9,30.05,WNW,296,0.0,3.0,83,0.00,,CLR,0.00,VWS V14.01,2013-04-04 10:00:00,
2013-04-04 05:02:00,36.6,31.9,30.05,West,269,5.0,5.0,83,0.00,,CLR,0.00,VWS V14.01,2013-04-04 10:02:00,
2013-04-04 05:05:00,36.4,32.0,30.05,West,267,0.0,2.0,84,0.00,,CLR,0.00,VWS V14.01,2013-04-04 10:05:00,
2013-04-04 05:07:00,36.4,32.0,30.05,WNW,292,5.0,6.0,84,0.00,,CLR,0.00,VWS V14.01,2013-04-04 10:07:00,
2013-04-04 05:10:00,36.1,31.7,30.05,WNW,299,3.0,3.0,84,0.00,,CLR,0.00,VWS V14.01,2013-04-04 10:10:00,
2013-04-04 05:12:00,36.2,31.8,30.05,WNW,283,4.0,4.0,84,0.00,,CLR,0.00,VWS V14.01,2013-04-04 10:12:00,
2013-04-04 05:15:00,35.9,31.5,30.05,NW,314,4.0,4.0,84,0.00,,CLR,0.00,VWS V14.01,2013-04-04 10:15:00,
2013-04-04 05:18:00,35.9,31.5,30.05,West,272,4.0,5.0,84,0.00,,CLR,0.00,VWS V14.01,2013-04-04 10:18:00,
2013-04-04 05:20:00,35.5,31.5,30.05,NW,321,5.0,6.0,85,0.00,,CLR,0.00,VWS V14.01,2013-04-04 10:20:00,
2013-04-04 05:23:00,35.5,31.5,30.05,WNW,302,4.0,6.0,85,0.00,,CLR,0.00,VWS V14.01,2013-04-04 10:23:00,
2013-04-04 05:25:00,35.2,31.1,30.05,NW,315,3.0,3.0,85,0.00,,CLR,0.00,VWS V14.01,2013-04-04 10:25:00,
2013-04-04 05:28:00,35.2,31.1,30.05,WNW,298,3.0,5.0,85,0.00,,CLR,0.00,VWS V14.01,2013-04-04 10:28:00,
2013-04-04 05:30:00,35.0,31.0,30.05,WNW,288,5.0,5.0,85,0.00,,CLR,0.00,VWS V14.01,2013-04-04 10:30:00,
2013-04-04 05:33:00,35.0,31.0,30.05,NW,314,4.0,4.0,85,0.00,,CLR,0.00,VWS V14.01,2013-04-04 10:33:00,
2013-04-04 05:35:00,34.9,31.1,30.05,NW,307,4.0,5.0,86,0.00,,CLR,0.00,VWS V14.01,2013-04-04 10:35:00,
2013-04-04 05:38:00,34.8,31.0,30.05,WNW,303,5.0,5.0,86,0.00,,CLR,0.00,VWS V14.01,2013-04-04 10:38:00,
2013-04-04 05:40:00,34.8,31.0,30.06,NW,317,5.0,5.0,86,0.00,,CLR,0.00,VWS V14.01,2013-04-04 10:40:00,
2013-04-04 05:43:00,34.8,31.0,30.06,NW,323,4.0,5.0,86,0.00,,CLR,0.00,VWS V14.01,2013-04-04 10:43:00,
2013-04-04 05:45:00,34.7,31.0,30.06,NW,309,4.0,4.0,86,0.00,,CLR,0.00,VWS V14.01,2013-04-04 10:45:00,
2013-04-04 05:48:00,34.7,31.0,30.06,NNW,327,3.0,4.0,86,0.00,,CLR,0.00,VWS V14.01,2013-04-04 10:48:00,
2013-04-04 05:50:00,34.6,30.9,30.06,WNW,298,6.0,6.0,86,0.00,,CLR,0.00,VWS V14.01,2013-04-04 10:50:00,
2013-04-04 05:53:00,34.6,30.9,30.06,NW,306,5.0,6.0,86,0.00,,CLR,0.00,VWS V14.01,2013-04-04 10:53:00,
2013-04-04 05:55:00,34.5,30.8,30.07,NW,321,4.0,4.0,86,0.00,,CLR,0.00,VWS V14.01,2013-04-04 10:55:00,
2013-04-04 05:58:00,34.5,30.8,30.07,NW,321,4.0,4.0,86,0.00,,CLR,0.00,VWS V14.01,2013-04-04 10:58:00,
2013-04-04 06:00:00,34.4,30.6,30.07,NW,311,8.0,8.0,86,0.00,,CLR,0.00,VWS V14.01,2013-04-04 11:00:00,
2013-04-04 06:03:00,34.4,30.6,30.07,NW,307,5.0,8.0,86,0.00,,CLR,0.00,VWS V14.01,2013-04-04 11:03:00,
2013-04-04 06:05:00,34.4,30.6,30.07,NW,310,7.0,7.0,86,0.00,,CLR,0.00,VWS V14.01,2013-04-04 11:05:00,
2013-04-04 06:09:00,34.4,30.6,30.07,NW,306,5.0,9.0,86,0.00,,CLR,0.00,VWS V14.01,2013-04-04 11:09:00,
2013-04-04 06:10:00,34.4,30.4,30.07,NW,311,5.0,5.0,85,0.00,,CLR,0.00,VWS V14.01,2013-04-04 11:10:00,
2013-04-04 06:14:00,34.4,30.4,30.07,NW,308,5.0,7.0,85,0.00,,CLR,0.00,VWS V14.01,2013-04-04 11:14:00,
2013-04-04 06:15:00,34.4,30.4,30.08,WNW,290,3.0,6.0,85,0.00,,CLR,0.00,VWS V14.01,2013-04-04 11:15:00,
2013-04-04 06:19:00,34.4,30.4,30.08,NW,311,3.0,6.0,85,0.00,,CLR,0.00,VWS V14.01,2013-04-04 11:19:00,
2013-04-04 06:20:00,34.4,30.4,30.08,NW,308,6.0,9.0,85,0.00,,CLR,0.00,VWS V14.01,2013-04-04 11:20:00,
2013-04-04 06:24:00,34.4,30.4,30.08,NW,321,5.0,9.0,85,0.00,,CLR,0.00,VWS V14.01,2013-04-04 11:24:00,
2013-04-04 06:25:00,34.4,30.4,30.08,WNW,299,3.0,3.0,85,0.00,,CLR,0.00,VWS V14.01,2013-04-04 11:25:00,
2013-04-04 06:29:00,34.4,30.4,30.08,WNW,284,5.0,6.0,85,0.00,,CLR,0.00,VWS V14.01,2013-04-04 11:29:00,
2013-04-04 06:30:00,34.4,30.4,30.09,NW,313,6.0,6.0,85,0.00,,CLR,0.00,VWS V14.01,2013-04-04 11:30:00,
2013-04-04 06:34:00,34.4,30.4,30.09,NW,305,4.0,4.0,85,0.00,,CLR,0.00,VWS V14.01,2013-04-04 11:34:00,
2013-04-04 06:35:00,34.4,30.4,30.09,NW,311,5.0,5.0,85,0.00,,CLR,0.00,VWS V14.01,2013-04-04 11:35:00,
2013-04-04 06:39:00,34.4,30.1,30.09,NW,306,5.0,5.0,84,0.00,,CLR,0.00,VWS V14.01,2013-04-04 11:39:00,
2013-04-04 06:40:00,34.4,30.1,30.09,NW,314,4.0,5.0,84,0.00,,CLR,0.00,VWS V14.01,2013-04-04 11:40:00,
2013-04-04 06:44:00,34.4,30.1,30.09,NW,323,5.0,7.0,84,0.00,,CLR,0.00,VWS V14.01,2013-04-04 11:44:00,
2013-04-04 06:45:00,34.3,30.0,30.09,WNW,294,4.0,5.0,84,0.00,,CLR,0.00,VWS V14.01,2013-04-04 11:45:00,
2013-04-04 06:49:00,34.3,30.0,30.09,NW,322,6.0,6.0,84,0.00,,CLR,0.00,VWS V14.01,2013-04-04 11:49:00,
2013-04-04 06:50:00,34.2,29.9,30.09,NW,313,5.0,5.0,84,0.00,,CLR,0.00,VWS V14.01,2013-04-04 11:50:00,
2013-04-04 06:54:00,34.2,29.9,30.10,NW,312,4.0,5.0,84,0.00,,CLR,0.00,VWS V14.01,2013-04-04 11:54:00,
2013-04-04 06:55:00,34.0,29.7,30.10,NW,325,4.0,5.0,84,0.00,,CLR,0.00,VWS V14.01,2013-04-04 11:55:00,
2013-04-04 07:00:00,34.0,29.7,30.10,NW,320,3.0,3.0,84,0.00,,CLR,0.00,VWS V14.01,2013-04-04 12:00:00,
2013-04-04 07:05:00,33.8,29.5,30.10,WNW,298,3.0,6.0,84,0.00,,CLR,0.00,VWS V14.01,2013-04-04 12:05:00,
2013-04-04 07:10:00,33.7,29.4,30.10,WNW,300,2.0,3.0,84,0.00,,CLR,0.00,VWS V14.01,2013-04-04 12:10:00,
2013-04-04 07:15:00,33.5,29.2,30.11,NW,324,5.0,5.0,84,0.00,,CLR,0.00,VWS V14.01,2013-04-04 12:15:00,
2013-04-04 07:20:00,33.4,29.1,30.11,NW,309,5.0,5.0,84,0.00,,CLR,0.00,VWS V14.01,2013-04-04 12:20:00,
2013-04-04 07:25:00,33.3,29.0,30.11,NW,317,5.0,5.0,84,0.00,,CLR,0.00,VWS V14.01,2013-04-04 12:25:00,
2013-04-04 07:30:00,33.2,28.9,30.12,WNW,301,3.0,3.0,84,0.00,,CLR,0.00,VWS V14.01,2013-04-04 12:30:00,
2013-04-04 07:35:00,33.2,28.9,30.12,WNW,302,5.0,6.0,84,0.00,,CLR,0.00,VWS V14.01,2013-04-04 12:35:00,
2013-04-04 07:40:00,33.2,28.9,30.12,WNW,294,2.0,2.0,84,0.00,,CLR,0.00,VWS V14.01,2013-04-04 12:40:00,
2013-04-04 07:45:00,33.3,29.0,30.13,West,280,3.0,4.0,84,0.00,,CLR,0.00,VWS V14.01,2013-04-04 12:45:00,
2013-04-04 07:50:00,33.4,28.8,30.13,NW,319,2.0,3.0,83,0.00,,CLR,0.00,VWS V14.01,2013-04-04 12:50:00,
2013-04-04 07:55:00,33.6,28.7,30.13,WNW,302,1.0,3.0,82,0.00,,CLR,0.00,VWS V14.01,2013-04-04 12:55:00,
2013-04-04 08:00:00,33.7,28.8,30.13,NW,310,6.0,6.0,82,0.00,,CLR,0.00,VWS V14.01,2013-04-04 13:00:00,
2013-04-04 08:05:00,33.9,28.7,30.13,WNW,292,5.0,7.0,81,0.00,,CLR,0.00,VWS V14.01,2013-04-04 13:05:00,
2013-04-04 08:10:00,34.4,28.9,30.14,NW,321,6.0,10.0,80,0.00,,CLR,0.00,VWS V14.01,2013-04-04 13:10:00,
2013-04-04 08:11:00,34.3,28.8,30.14,NW,312,6.0,10.0,80,0.00,,CLR,0.00,VWS V14.01,2013-04-04 13:11:00,
2013-04-04 08:15:00,34.5,28.7,30.14,NW,310,9.0,10.0,79,0.00,,CLR,0.00,VWS V14.01,2013-04-04 13:15:00,
2013-04-04 08:16:00,34.4,28.6,30.14,NNW,338,9.0,10.0,79,0.00,,CLR,0.00,VWS V14.01,2013-04-04 13:16:00,
2013-04-04 08:20:00,34.7,28.6,30.13,NW,313,10.0,10.0,78,0.00,,CLR,0.00,VWS V14.01,2013-04-04 13:20:00,
2013-04-04 08:21:00,34.6,28.5,30.13,NW,306,6.0,9.0,78,0.00,,CLR,0.00,VWS V14.01,2013-04-04 13:21:00,
2013-04-04 08:25:00,35.0,28.5,30.13,NNW,344,9.0,9.0,77,0.00,,CLR,0.00,VWS V14.01,2013-04-04 13:25:00,
2013-04-04 08:26:00,34.9,28.8,30.13,NW,309,7.0,7.0,78,0.00,,CLR,0.00,VWS V14.01,2013-04-04 13:26:00,
2013-04-04 08:30:00,35.3,28.8,30.13,NW,326,5.0,6.0,77,0.00,,CLR,0.00,VWS V14.01,2013-04-04 13:30:00,
2013-04-04 08:31:00,35.2,28.7,30.13,NNW,333,8.0,8.0,77,0.00,,CLR,0.00,VWS V14.01,2013-04-04 13:31:00,
2013-04-04 08:35:00,35.5,29.0,30.13,NNW,327,7.0,9.0,77,0.00,,CLR,0.00,VWS V14.01,2013-04-04 13:35:00,
2013-04-04 08:36:00,35.5,29.0,30.13,NW,326,4.0,6.0,77,0.00,,CLR,0.00,VWS V14.01,2013-04-04 13:36:00,
2013-04-04 08:40:00,35.6,28.8,30.13,NNW,329,6.0,9.0,76,0.00,,CLR,0.00,VWS V14.01,2013-04-04 13:40:00,
2013-04-04 08:41:00,35.6,29.1,30.13,NNW,330,7.0,7.0,77,0.00,,CLR,0.00,VWS V14.01,2013-04-04 13:41:00,
2013-04-04 08:45:00,35.6,28.8,30.13,NNW,334,9.0,9.0,76,0.00,,CLR,0.00,VWS V14.01,2013-04-04 13:45:00,
2013-04-04 08:46:00,35.6,28.8,30.13,NNW,329,6.0,6.0,76,0.00,,CLR,0.00,VWS V14.01,2013-04-04 13:46:00,
2013-04-04 08:50:00,35.5,28.7,30.14,NW,321,12.0,12.0,76,0.00,,CLR,0.00,VWS V14.01,2013-04-04 13:50:00,
2013-04-04 08:52:00,35.6,28.5,30.14,NW,315,12.0,12.0,75,0.00,,CLR,0.00,VWS V14.01,2013-04-04 13:52:00,
2013-04-04 08:55:00,35.3,28.2,30.14,NW,324,7.0,9.0,75,0.00,,CLR,0.00,VWS V14.01,2013-04-04 13:55:00,
2013-04-04 08:57:00,35.4,28.0,30.14,NNW,341,10.0,12.0,74,0.00,,CLR,0.00,VWS V14.01,2013-04-04 13:57:00,
2013-04-04 09:00:00,34.8,27.7,30.14,NW,321,12.0,12.0,75,0.00,,CLR,0.00,VWS V14.01,2013-04-04 14:00:00,
2013-04-04 09:02:00,35.0,27.9,30.14,NW,323,13.0,13.0,75,0.00,,CLR,0.00,VWS V14.01,2013-04-04 14:02:00,
2013-04-04 09:05:00,34.5,28.0,30.14,NW,319,10.0,10.0,77,0.00,,CLR,0.00,VWS V14.01,2013-04-04 14:05:00,
2013-04-04 09:07:00,34.5,27.7,30.14,NW,311,7.0,10.0,76,0.00,,CLR,0.00,VWS V14.01,2013-04-04 14:07:00,
2013-04-04 09:10:00,34.7,28.2,30.15,NW,321,6.0,6.0,77,0.00,,CLR,0.00,VWS V14.01,2013-04-04 14:10:00,
2013-04-04 09:12:00,34.6,28.1,30.15,NW,309,9.0,9.0,77,0.00,,CLR,0.00,VWS V14.01,2013-04-04 14:12:00,
2013-04-04 09:15:00,35.0,28.5,30.15,NW,309,8.0,10.0,77,0.00,,CLR,0.00,VWS V14.01,2013-04-04 14:15:00,
2013-04-04 09:17:00,35.0,28.5,30.15,NNW,330,13.0,13.0,77,0.00,,CLR,0.00,VWS V14.01,2013-04-04 14:17:00,
2013-04-04 09:20:00,35.2,28.4,30.15,NW,311,10.0,14.0,76,0.00,,CLR,0.00,VWS V14.01,2013-04-04 14:20:00,
2013-04-04 09:22:00,35.2,28.7,30.15,NW,312,7.0,11.0,77,0.00,,CLR,0.00,VWS V14.01,2013-04-04 14:22:00,
2013-04-04 09:25:00,35.4,28.6,30.15,NNW,327,8.0,10.0,76,0.00,,CLR,0.00,VWS V14.01,2013-04-04 14:25:00,
2013-04-04 09:27:00,35.4,28.6,30.15,NNW,336,8.0,8.0,76,0.00,,CLR,0.00,VWS V14.01,2013-04-04 14:27:00,
2013-04-04 09:30:00,35.5,28.7,30.15,North,355,13.0,13.0,76,0.00,,CLR,0.00,VWS V14.01,2013-04-04 14:30:00,
2013-04-04 09:32:00,35.5,28.7,30.15,NW,324,7.0,8.0,76,0.00,,CLR,0.00,VWS V14.01,2013-04-04 14:32:00,
2013-04-04 09:35:00,35.8,29.0,30.15,NNW,345,8.0,10.0,76,0.00,,CLR,0.00,VWS V14.01,2013-04-04 14:35:00,
2013-04-04 09:37:00,35.7,28.9,30.15,NNW,343,7.0,7.0,76,0.00,,CLR,0.00,VWS V14.01,2013-04-04 14:37:00,
2013-04-04 09:40:00,36.1,29.0,30.15,NNW,338,7.0,9.0,75,0.00,,CLR,0.00,VWS V14.01,2013-04-04 14:40:00,
2013-04-04 09:42:00,36.0,28.9,30.15,NNW,344,10.0,11.0,75,0.00,,CLR,0.00,VWS V14.01,2013-04-04 14:42:00,
2013-04-04 09:45:00,36.2,29.0,30.15,North,9,10.0,12.0,75,0.00,,CLR,0.00,VWS V14.01,2013-04-04 14:45:00,
2013-04-04 09:48:00,36.2,29.0,30.15,NNW,342,6.0,7.0,75,0.00,,CLR,0.00,VWS V14.01,2013-04-04 14:48:00,
2013-04-04 09:50:00,36.5,29.0,30.15,NNW,348,10.0,12.0,74,0.00,,CLR,0.00,VWS V14.01,2013-04-04 14:50:00,
2013-04-04 09:53:00,36.4,29.2,30.15,NNW,346,9.0,12.0,75,0.00,,CLR,0.00,VWS V14.01,2013-04-04 14:53:00,
2013-04-04 09:55:00,36.8,29.3,30.15,NNW,338,10.0,12.0,74,0.00,,CLR,0.00,VWS V14.01,2013-04-04 14:55:00,
2013-04-04 09:58:00,36.7,29.2,30.15,NNW,337,10.0,11.0,74,0.00,,CLR,0.00,VWS V14.01,2013-04-04 14:58:00,
2013-04-04 10:00:00,37.0,29.5,30.14,North,355,6.0,6.0,74,0.00,,CLR,0.00,VWS V14.01,2013-04-04 15:00:00,
2013-04-04 10:03:00,37.0,29.5,30.14,NNW,330,9.0,10.0,74,0.00,,CLR,0.00,VWS V14.01,2013-04-04 15:03:00,
2013-04-04 10:05:00,37.5,30.0,30.14,North,360,7.0,9.0,74,0.00,,CLR,0.00,VWS V14.01,2013-04-04 15:05:00,
2013-04-04 10:08:00,37.4,29.9,30.14,North,355,11.0,11.0,74,0.00,,CLR,0.00,VWS V14.01,2013-04-04 15:08:00,
2013-04-04 10:10:00,37.7,29.8,30.14,NNW,338,6.0,10.0,73,0.00,,CLR,0.00,VWS V14.01,2013-04-04 15:10:00,
2013-04-04 10:13:00,37.7,29.8,30.14,NNW,331,6.0,7.0,73,0.00,,CLR,0.00,VWS V14.01,2013-04-04 15:13:00,
2013-04-04 10:15:00,37.9,30.0,30.14,NNW,332,5.0,7.0,73,0.00,,CLR,0.00,VWS V14.01,2013-04-04 15:15:00,
2013-04-04 10:18:00,37.9,30.0,30.14,NNW,330,8.0,9.0,73,0.00,,CLR,0.00,VWS V14.01,2013-04-04 15:18:00,
2013-04-04 10:20:00,38.2,30.3,30.14,NW,319,8.0,9.0,73,0.00,,CLR,0.00,VWS V14.01,2013-04-04 15:20:00,
2013-04-04 10:23:00,38.2,30.3,30.14,North,349,10.0,11.0,73,0.00,,CLR,0.00,VWS V14.01,2013-04-04 15:23:00,
2013-04-04 10:25:00,38.4,30.9,30.14,North,360,9.0,10.0,74,0.00,,CLR,0.00,VWS V14.01,2013-04-04 15:25:00,
2013-04-04 10:28:00,38.4,30.5,30.14,North,360,9.0,9.0,73,0.00,,CLR,0.00,VWS V14.01,2013-04-04 15:28:00,
2013-04-04 10:30:00,38.4,30.5,30.15,NNW,338,8.0,8.0,73,0.00,,CLR,0.00,VWS V14.01,2013-04-04 15:30:00,
2013-04-04 10:33:00,38.4,30.5,30.15,NNW,338,7.0,7.0,73,0.00,,CLR,0.00,VWS V14.01,2013-04-04 15:33:00,
2013-04-04 10:35:00,38.6,30.0,30.15,North,355,10.0,12.0,71,0.00,,CLR,0.00,VWS V14.01,2013-04-04 15:35:00,
2013-04-04 10:38:00,38.6,30.0,30.15,North,5,9.0,10.0,71,0.00,,CLR,0.00,VWS V14.01,2013-04-04 15:38:00,
2013-04-04 10:40:00,38.6,30.0,30.15,North,355,6.0,9.0,71,0.00,,CLR,0.00,VWS V14.01,2013-04-04 15:40:00,
2013-04-04 10:43:00,38.6,30.0,30.15,NW,323,9.0,10.0,71,0.00,,CLR,0.00,VWS V14.01,2013-04-04 15:43:00,
2013-04-04 10:45:00,38.5,29.9,30.15,NNW,341,10.0,13.0,71,0.00,,CLR,0.00,VWS V14.01,2013-04-04 15:45:00,
2013-04-04 10:48:00,38.5,29.9,30.15,NNW,341,12.0,12.0,71,0.00,,CLR,0.00,VWS V14.01,2013-04-04 15:48:00,
2013-04-04 10:50:00,38.8,29.9,30.16,NNW,346,9.0,10.0,70,0.00,,CLR,0.00,VWS V14.01,2013-04-04 15:50:00,
2013-04-04 10:53:00,38.8,29.9,30.16,North,355,10.0,10.0,70,0.00,,CLR,0.00,VWS V14.01,2013-04-04 15:53:00,
2013-04-04 10:55:00,39.0,30.1,30.16,NNW,339,9.0,11.0,70,0.00,,CLR,0.00,VWS V14.01,2013-04-04 15:55:00,
2013-04-04 10:58:00,39.0,30.1,30.16,NNW,339,9.0,11.0,70,0.00,,CLR,0.00,VWS V14.01,2013-04-04 15:58:00,
2013-04-04 11:00:00,39.0,29.7,30.16,North,360,10.0,11.0,69,0.00,,CLR,0.00,VWS V14.01,2013-04-04 16:00:00,
2013-04-04 11:03:00,39.0,29.7,30.16,North,360,10.0,11.0,69,0.00,,CLR,0.00,VWS V14.01,2013-04-04 16:03:00,
2013-04-04 11:05:00,39.3,29.6,30.15,North,355,11.0,11.0,68,0.00,,CLR,0.00,VWS V14.01,2013-04-04 16:05:00,
2013-04-04 11:08:00,39.3,29.6,30.15,North,355,11.0,11.0,68,0.00,,CLR,0.00,VWS V14.01,2013-04-04 16:08:00,
2013-04-04 11:10:00,39.5,29.8,30.16,NNW,348,13.0,13.0,68,0.00,,CLR,0.00,VWS V14.01,2013-04-04 16:10:00,
2013-04-04 11:13:00,39.5,29.8,30.16,NNW,348,13.0,13.0,68,0.00,,CLR,0.00,VWS V14.01,2013-04-04 16:13:00,
2013-04-04 11:15:00,39.6,29.9,30.15,North,355,11.0,11.0,68,0.00,,CLR,0.00,VWS V14.01,2013-04-04 16:15:00,
2013-04-04 11:18:00,39.6,29.9,30.15,North,355,11.0,11.0,68,0.00,,CLR,0.00,VWS V14.01,2013-04-04 16:18:00,
2013-04-04 11:20:00,39.8,29.4,30.16,North,5,12.0,14.0,66,0.00,,CLR,0.00,VWS V14.01,2013-04-04 16:20:00,
2013-04-04 11:23:00,39.8,29.4,30.16,North,5,12.0,14.0,66,0.00,,CLR,0.00,VWS V14.01,2013-04-04 16:23:00,
2013-04-04 11:25:00,39.8,29.0,30.16,NNW,348,9.0,12.0,65,0.00,,CLR,0.00,VWS V14.01,2013-04-04 16:25:00,
2013-04-04 11:28:00,39.8,29.0,30.16,NNW,348,9.0,12.0,65,0.00,,CLR,0.00,VWS V14.01,2013-04-04 16:28:00,
2013-04-04 11:30:00,39.7,29.3,30.16,North,350,13.0,13.0,66,0.00,,CLR,0.00,VWS V14.01,2013-04-04 16:30:00,
2013-04-04 11:33:00,39.7,29.3,30.17,NNW,335,13.0,13.0,66,0.00,,CLR,0.00,VWS V14.01,2013-04-04 16:33:00,
2013-04-04 11:35:00,39.9,29.1,30.16,NNW,348,9.0,12.0,65,0.00,,CLR,0.00,VWS V14.01,2013-04-04 16:35:00,
2013-04-04 11:38:00,39.9,29.1,30.16,NNW,348,9.0,12.0,65,0.00,,CLR,0.00,VWS V14.01,2013-04-04 16:38:00,
2013-04-04 11:40:00,40.4,30.3,30.16,NNW,330,10.0,10.0,67,0.00,,CLR,0.00,VWS V14.01,2013-04-04 16:40:00,
2013-04-04 11:43:00,40.4,30.3,30.16,NNW,330,10.0,10.0,67,0.00,,CLR,0.00,VWS V14.01,2013-04-04 16:43:00,
2013-04-04 11:45:00,40.8,30.0,30.17,NNW,345,9.0,10.0,65,0.00,,CLR,0.00,VWS V14.01,2013-04-04 16:45:00,
2013-04-04 11:48:00,40.8,30.0,30.17,NNW,345,9.0,10.0,65,0.00,,CLR,0.00,VWS V14.01,2013-04-04 16:48:00,
2013-04-04 11:50:00,40.8,30.3,30.17,NW,319,8.0,9.0,66,0.00,,CLR,0.00,VWS V14.01,2013-04-04 16:50:00,
2013-04-04 11:53:00,40.8,30.3,30.17,NW,319,8.0,9.0,66,0.00,,CLR,0.00,VWS V14.01,2013-04-04 16:53:00,
2013-04-04 11:55:00,41.0,30.1,30.17,NW,323,10.0,10.0,65,0.00,,CLR,0.00,VWS V14.01,2013-04-04 16:55:00,
2013-04-04 11:58:00,41.0,30.1,30.17,NW,323,10.0,10.0,65,0.00,,CLR,0.00,VWS V14.01,2013-04-04 16:58:00,
2013-04-04 12:00:00,41.0,29.8,30.17,NNW,332,5.0,9.0,64,0.00,,CLR,0.00,VWS V14.01,2013-04-04 17:00:00,
2013-04-04 12:03:00,41.0,29.8,30.17,NNW,332,5.0,9.0,64,0.00,,CLR,0.00,VWS V14.01,2013-04-04 17:03:00,
2013-04-04 12:05:00,40.9,30.4,30.17,NW,309,8.0,10.0,66,0.00,,CLR,0.00,VWS V14.01,2013-04-04 17:05:00,
2013-04-04 12:08:00,40.9,30.4,30.17,NW,309,8.0,10.0,66,0.00,,CLR,0.00,VWS V14.01,2013-04-04 17:08:00,
2013-04-04 12:10:00,41.1,29.9,30.17,NW,311,7.0,9.0,64,0.00,,CLR,0.00,VWS V14.01,2013-04-04 17:10:00,
2013-04-04 12:14:00,41.1,29.9,30.17,NW,306,6.0,9.0,64,0.00,,CLR,0.00,VWS V14.01,2013-04-04 17:14:00,
2013-04-04 12:15:00,41.3,30.4,30.17,NNW,330,11.0,12.0,65,0.00,,CLR,0.00,VWS V14.01,2013-04-04 17:15:00,
2013-04-04 12:19:00,41.3,30.1,30.17,NNW,327,12.0,13.0,64,0.00,,CLR,0.00,VWS V14.01,2013-04-04 17:19:00,
2013-04-04 12:20:00,41.4,30.1,30.17,WNW,292,11.0,12.0,64,0.00,,CLR,0.00,VWS V14.01,2013-04-04 17:20:00,
2013-04-04 12:24:00,41.3,29.7,30.17,NW,309,10.0,10.0,63,0.00,,CLR,0.00,VWS V14.01,2013-04-04 17:24:00,
2013-04-04 12:25:00,41.6,30.3,30.17,NW,325,6.0,6.0,64,0.00,,CLR,0.00,VWS V14.01,2013-04-04 17:25:00,
2013-04-04 12:29:00,41.7,30.4,30.17,NNW,327,6.0,6.0,64,0.00,,CLR,0.00,VWS V14.01,2013-04-04 17:29:00,
2013-04-04 12:30:00,41.9,30.6,30.16,NW,313,6.0,6.0,64,0.00,,CLR,0.00,VWS V14.01,2013-04-04 17:30:00,
2013-04-04 12:34:00,41.9,30.6,30.16,NW,310,9.0,11.0,64,0.00,,CLR,0.00,VWS V14.01,2013-04-04 17:34:00,
2013-04-04 12:35:00,41.8,30.1,30.16,NW,321,10.0,11.0,63,0.00,,CLR,0.00,VWS V14.01,2013-04-04 17:35:00,
2013-04-04 12:39:00,41.8,30.1,30.17,NW,317,11.0,15.0,63,0.00,,CLR,0.00,VWS V14.01,2013-04-04 17:39:00,
2013-04-04 12:40:00,41.7,29.3,30.16,NNW,333,4.0,6.0,61,0.00,,CLR,0.00,VWS V14.01,2013-04-04 17:40:00,
2013-04-04 12:44:00,41.7,29.7,30.16,WNW,292,6.0,10.0,62,0.00,,CLR,0.00,VWS V14.01,2013-04-04 17:44:00,
2013-04-04 12:45:00,41.7,30.4,30.16,NW,323,10.0,12.0,64,0.00,,CLR,0.00,VWS V14.01,2013-04-04 17:45:00,
2013-04-04 12:50:00,41.8,30.1,30.16,NW,324,9.0,11.0,63,0.00,,CLR,0.00,VWS V14.01,2013-04-04 17:50:00,
2013-04-04 12:55:00,42.0,30.3,30.16,NNW,341,9.0,9.0,63,0.00,,CLR,0.00,VWS V14.01,2013-04-04 17:55:00,
2013-04-04 13:00:00,42.2,30.1,30.16,NW,323,10.0,14.0,62,0.00,,CLR,0.00,VWS V14.01,2013-04-04 18:00:00,
2013-04-04 13:05:00,42.2,29.7,30.16,NNW,334,12.0,12.0,61,0.00,,CLR,0.00,VWS V14.01,2013-04-04 18:05:00,
2013-04-04 13:10:00,42.3,30.6,30.17,North,5,6.0,6.0,63,0.00,,CLR,0.00,VWS V14.01,2013-04-04 18:10:00,
2013-04-04 13:15:00,42.7,31.4,30.16,NW,326,9.0,12.0,64,0.00,,CLR,0.00,VWS V14.01,2013-04-04 18:15:00,
2013-04-04 13:20:00,43.2,31.1,30.16,NW,306,7.0,8.0,62,0.00,,CLR,0.00,VWS V14.01,2013-04-04 18:20:00,
2013-04-04 13:25:00,43.2,30.3,30.17,NW,317,11.0,12.0,60,0.00,,CLR,0.00,VWS V14.01,2013-04-04 18:25:00,
2013-04-04 13:30:00,43.2,30.3,30.17,NW,322,12.0,12.0,60,0.00,,CLR,0.00,VWS V14.01,2013-04-04 18:30:00,
2013-04-04 13:31:00,43.0,30.5,30.17,NNW,344,12.0,12.0,61,0.00,,CLR,0.00,VWS V14.01,2013-04-04 18:31:00,
2013-04-04 13:35:00,42.7,30.6,30.16,NNW,342,13.0,13.0,62,0.00,,CLR,0.00,VWS V14.01,2013-04-04 18:35:00,
2013-04-04 13:37:00,42.8,29.5,30.17,NW,311,11.0,12.0,59,0.00,,CLR,0.00,VWS V14.01,2013-04-04 18:37:00,
2013-04-04 13:40:00,42.6,30.5,30.17,NNW,338,12.0,12.0,62,0.00,,CLR,0.00,VWS V14.01,2013-04-04 18:40:00,
2013-04-04 13:42:00,42.6,28.9,30.17,NW,315,11.0,12.0,58,0.00,,CLR,0.00,VWS V14.01,2013-04-04 18:42:00,
2013-04-04 13:45:00,42.5,29.2,30.17,NNW,328,12.0,15.0,59,0.00,,CLR,0.00,VWS V14.01,2013-04-04 18:45:00,
2013-04-04 13:47:00,42.5,28.8,30.17,NW,326,11.0,12.0,58,0.00,,CLR,0.00,VWS V14.01,2013-04-04 18:47:00,
2013-04-04 13:50:00,42.4,28.3,30.17,NW,326,10.0,12.0,57,0.00,,CLR,0.00,VWS V14.01,2013-04-04 18:50:00,
2013-04-04 13:52:00,42.4,29.5,30.17,NNW,338,14.0,17.0,60,0.00,,CLR,0.00,VWS V14.01,2013-04-04 18:52:00,
2013-04-04 13:55:00,42.5,29.6,30.17,NNW,344,11.0,11.0,60,0.00,,CLR,0.00,VWS V14.01,2013-04-04 18:55:00,
2013-04-04 13:57:00,42.4,29.5,30.17,NNW,327,13.0,13.0,60,0.00,,CLR,0.00,VWS V14.01,2013-04-04 18:57:00,
2013-04-04 14:00:00,42.6,28.5,30.17,NNW,335,11.0,13.0,57,0.00,,CLR,0.00,VWS V14.01,2013-04-04 19:00:00,
2013-04-04 14:02:00,42.7,29.0,30.17,NW,321,14.0,15.0,58,0.00,,CLR,0.00,VWS V14.01,2013-04-04 19:02:00,
2013-04-04 14:05:00,42.7,29.8,30.17,NW,308,8.0,10.0,60,0.00,,CLR,0.00,VWS V14.01,2013-04-04 19:05:00,
2013-04-04 14:07:00,42.6,29.3,30.17,NW,321,10.0,12.0,59,0.00,,CLR,0.00,VWS V14.01,2013-04-04 19:07:00,
2013-04-04 14:10:00,42.9,29.6,30.17,NW,317,11.0,17.0,59,0.00,,CLR,0.00,VWS V14.01,2013-04-04 19:10:00,
2013-04-04 14:12:00,42.8,29.5,30.17,NW,324,12.0,13.0,59,0.00,,CLR,0.00,VWS V14.01,2013-04-04 19:12:00,
2013-04-04 14:15:00,42.7,29.0,30.17,NW,311,8.0,11.0,58,0.00,,CLR,0.00,VWS V14.01,2013-04-04 19:15:00,
2013-04-04 14:17:00,42.7,28.1,30.17,NNW,327,11.0,14.0,56,0.00,,CLR,0.00,VWS V14.01,2013-04-04 19:17:00,
2013-04-04 14:20:00,42.8,28.6,30.17,NNW,327,19.0,19.0,57,0.00,,CLR,0.00,VWS V14.01,2013-04-04 19:20:00,
2013-04-04 14:22:00,42.8,29.1,30.17,NW,307,10.0,11.0,58,0.00,,CLR,0.00,VWS V14.01,2013-04-04 19:22:00,
2013-04-04 14:25:00,42.7,28.5,30.17,NW,310,11.0,11.0,57,0.00,,CLR,0.00,VWS V14.01,2013-04-04 19:25:00,
2013-04-04 14:27:00,42.7,29.4,30.17,NW,307,12.0,12.0,59,0.00,,CLR,0.00,VWS V14.01,2013-04-04 19:27:00,
2013-04-04 14:30:00,42.5,28.4,30.17,NW,314,16.0,17.0,57,0.00,,CLR,0.00,VWS V14.01,2013-04-04 19:30:00,
2013-04-04 14:32:00,42.5,28.4,30.17,NNW,329,11.0,11.0,57,0.00,,CLR,0.00,VWS V14.01,2013-04-04 19:32:00,
2013-04-04 14:35:00,42.3,27.7,30.17,NNW,332,11.0,14.0,56,0.00,,CLR,0.00,VWS V14.01,2013-04-04 19:35:00,
2013-04-04 14:37:00,42.3,27.7,30.17,NW,321,11.0,14.0,56,0.00,,CLR,0.00,VWS V14.01,2013-04-04 19:37:00,
2013-04-04 14:40:00,42.7,28.5,30.17,NW,315,9.0,13.0,57,0.00,,CLR,0.00,VWS V14.01,2013-04-04 19:40:00,
2013-04-04 14:43:00,42.6,28.5,30.17,NW,325,9.0,13.0,57,0.00,,CLR,0.00,VWS V14.01,2013-04-04 19:43:00,
2013-04-04 14:45:00,42.9,29.2,30.17,NNW,335,9.0,10.0,58,0.00,,CLR,0.00,VWS V14.01,2013-04-04 19:45:00,
2013-04-04 14:48:00,42.8,29.1,30.17,NNW,334,9.0,11.0,58,0.00,,CLR,0.00,VWS V14.01,2013-04-04 19:48:00,
2013-04-04 14:50:00,42.9,27.9,30.17,NNW,337,10.0,10.0,55,0.00,,CLR,0.00,VWS V14.01,2013-04-04 19:50:00,
2013-04-04 14:53:00,42.9,27.9,30.17,NNW,337,10.0,10.0,55,0.00,,CLR,0.00,VWS V14.01,2013-04-04 19:53:00,
2013-04-04 14:55:00,42.9,28.7,30.17,NW,311,15.0,18.0,57,0.00,,CLR,0.00,VWS V14.01,2013-04-04 19:55:00,
2013-04-04 14:58:00,42.9,28.7,30.17,NW,319,14.0,18.0,57,0.00,,CLR,0.00,VWS V14.01,2013-04-04 19:58:00,
2013-04-04 15:00:00,42.6,28.0,30.17,NNW,346,7.0,10.0,56,0.00,,CLR,0.00,VWS V14.01,2013-04-04 20:00:00,
2013-04-04 15:03:00,42.6,28.0,30.17,NNW,346,7.0,10.0,56,0.00,,CLR,0.00,VWS V14.01,2013-04-04 20:03:00,
2013-04-04 15:05:00,42.6,28.0,30.17,NNW,348,10.0,16.0,56,0.00,,CLR,0.00,VWS V14.01,2013-04-04 20:05:00,
2013-04-04 15:08:00,42.6,28.0,30.17,NNW,339,11.0,13.0,56,0.00,,CLR,0.00,VWS V14.01,2013-04-04 20:08:00,
2013-04-04 15:10:00,42.6,28.0,30.17,NNW,333,12.0,14.0,56,0.00,,CLR,0.00,VWS V14.01,2013-04-04 20:10:00,
2013-04-04 15:14:00,42.6,28.9,30.17,NNW,328,12.0,12.0,58,0.00,,CLR,0.00,VWS V14.01,2013-04-04 20:14:00,
2013-04-04 15:15:00,42.5,28.4,30.17,NNW,333,13.0,13.0,57,0.00,,CLR,0.00,VWS V14.01,2013-04-04 20:15:00,
2013-04-04 15:19:00,42.5,27.9,30.17,North,349,13.0,17.0,56,0.00,,CLR,0.00,VWS V14.01,2013-04-04 20:19:00,
2013-04-04 15:20:00,42.3,28.2,30.17,NNW,328,12.0,17.0,57,0.00,,CLR,0.00,VWS V14.01,2013-04-04 20:20:00,
2013-04-04 15:24:00,42.3,27.3,30.17,WNW,302,7.0,10.0,55,0.00,,CLR,0.00,VWS V14.01,2013-04-04 20:24:00,
2013-04-04 15:25:00,42.2,27.6,30.17,NW,311,11.0,11.0,56,0.00,,CLR,0.00,VWS V14.01,2013-04-04 20:25:00,
2013-04-04 15:29:00,42.2,27.6,30.17,NNW,333,11.0,11.0,56,0.00,,CLR,0.00,VWS V14.01,2013-04-04 20:29:00,
2013-04-04 15:30:00,42.4,28.3,30.17,NW,306,13.0,16.0,57,0.00,,CLR,0.00,VWS V14.01,2013-04-04 20:30:00,
2013-04-04 15:34:00,42.4,27.4,30.17,NW,310,11.0,15.0,55,0.00,,CLR,0.00,VWS V14.01,2013-04-04 20:34:00,
2013-04-04 15:35:00,42.4,28.3,30.17,WNW,294,13.0,13.0,57,0.00,,CLR,0.00,VWS V14.01,2013-04-04 20:35:00,
2013-04-04 15:39:00,42.4,27.4,30.17,WNW,296,12.0,12.0,55,0.00,,CLR,0.00,VWS V14.01,2013-04-04 20:39:00,
2013-04-04 15:40:00,42.6,28.0,30.17,NW,310,11.0,15.0,56,0.00,,CLR,0.00,VWS V14.01,2013-04-04 20:40:00,
2013-04-04 15:44:00,42.6,28.0,30.17,NNW,342,16.0,16.0,56,0.00,,CLR,0.00,VWS V14.01,2013-04-04 20:44:00,
2013-04-04 15:45:00,42.7,28.1,30.17,NW,319,13.0,14.0,56,0.00,,CLR,0.00,VWS V14.01,2013-04-04 20:45:00,
2013-04-04 15:49:00,42.7,29.0,30.17,WNW,303,10.0,12.0,58,0.00,,CLR,0.00,VWS V14.01,2013-04-04 20:49:00,
2013-04-04 15:50:00,42.9,28.3,30.17,NW,325,14.0,17.0,56,0.00,,CLR,0.00,VWS V14.01,2013-04-04 20:50:00,
2013-04-04 15:54:00,42.8,27.8,30.17,NNW,330,12.0,13.0,55,0.00,,CLR,0.00,VWS V14.01,2013-04-04 20:54:00,
2013-04-04 15:55:00,42.8,27.8,30.17,NW,317,11.0,12.0,55,0.00,,CLR,0.00,VWS V14.01,2013-04-04 20:55:00,
2013-04-04 15:59:00,42.7,27.7,30.17,NW,314,11.0,14.0,55,0.00,,CLR,0.00,VWS V14.01,2013-04-04 20:59:00,
2013-04-04 16:00:00,42.5,27.5,30.17,NW,304,6.0,9.0,55,0.00,,CLR,0.00,VWS V14.01,2013-04-04 21:00:00,
2013-04-04 16:04:00,42.5,27.9,30.17,North,350,12.0,12.0,56,0.00,,CLR,0.00,VWS V14.01,2013-04-04 21:04:00,
2013-04-04 16:05:00,42.7,28.1,30.17,NW,311,15.0,15.0,56,0.00,,CLR,0.00,VWS V14.01,2013-04-04 21:05:00,
2013-04-04 16:09:00,42.7,27.2,30.17,NNW,331,10.0,10.0,54,0.00,,CLR,0.00,VWS V14.01,2013-04-04 21:09:00,
2013-04-04 16:10:00,42.7,27.7,30.17,NNW,348,11.0,13.0,55,0.00,,CLR,0.00,VWS V14.01,2013-04-04 21:10:00,
2013-04-04 16:14:00,42.7,28.1,30.17,NNW,338,7.0,7.0,56,0.00,,CLR,0.00,VWS V14.01,2013-04-04 21:14:00,
2013-04-04 16:15:00,42.8,27.3,30.17,NNW,337,15.0,15.0,54,0.00,,CLR,0.00,VWS V14.01,2013-04-04 21:15:00,
2013-04-04 16:20:00,42.7,26.3,30.16,NNW,329,11.0,15.0,52,0.00,,CLR,0.00,VWS V14.01,2013-04-04 21:20:00,
2013-04-04 16:25:00,42.4,26.0,30.17,NW,315,14.0,15.0,52,0.00,,CLR,0.00,VWS V14.01,2013-04-04 21:25:00,
2013-04-04 16:30:00,42.2,26.8,30.17,NNW,329,9.0,9.0,54,0.00,,CLR,0.00,VWS V14.01,2013-04-04 21:30:00,
2013-04-04 16:35:00,42.4,27.4,30.17,NW,326,9.0,11.0,55,0.00,,CLR,0.00,VWS V14.01,2013-04-04 21:35:00,
2013-04-04 16:40:00,42.4,27.0,30.17,NW,313,11.0,12.0,54,0.00,,CLR,0.00,VWS V14.01,2013-04-04 21:40:00,
2013-04-04 16:45:00,42.3,27.3,30.17,NNW,329,11.0,15.0,55,0.00,,CLR,0.00,VWS V14.01,2013-04-04 21:45:00,
2013-04-04 16:50:00,42.1,26.7,30.17,NNW,336,10.0,12.0,54,0.00,,CLR,0.00,VWS V14.01,2013-04-04 21:50:00,
2013-04-04 16:55:00,42.1,27.1,30.17,NNW,340,14.0,14.0,55,0.00,,CLR,0.00,VWS V14.01,2013-04-04 21:55:00,
2013-04-04 17:00:00,42.3,27.3,30.17,NNW,332,11.0,11.0,55,0.00,,CLR,0.00,VWS V14.01,2013-04-04 22:00:00,
2013-04-04 17:05:00,42.4,27.0,30.18,NNW,329,13.0,14.0,54,0.00,,CLR,0.00,VWS V14.01,2013-04-04 22:05:00,
2013-04-04 17:10:00,42.4,27.0,30.18,WNW,291,11.0,11.0,54,0.00,,CLR,0.00,VWS V14.01,2013-04-04 22:10:00,
2013-04-04 17:15:00,42.2,26.3,30.18,NW,318,6.0,14.0,53,0.00,,CLR,0.00,VWS V14.01,2013-04-04 22:15:00,
2013-04-04 17:16:00,42.1,27.1,30.18,NW,319,6.0,6.0,55,0.00,,CLR,0.00,VWS V14.01,2013-04-04 22:16:00,
2013-04-04 17:20:00,41.9,26.0,30.18,NW,322,7.0,13.0,53,0.00,,CLR,0.00,VWS V14.01,2013-04-04 22:20:00,
2013-04-04 17:21:00,42.2,26.3,30.18,NW,325,9.0,11.0,53,0.00,,CLR,0.00,VWS V14.01,2013-04-04 22:21:00,
2013-04-04 17:25:00,41.7,27.2,30.18,NW,306,9.0,9.0,56,0.00,,CLR,0.00,VWS V14.01,2013-04-04 22:25:00,
2013-04-04 17:26:00,41.7,26.7,30.18,NW,315,10.0,11.0,55,0.00,,CLR,0.00,VWS V14.01,2013-04-04 22:26:00,
2013-04-04 17:30:00,41.8,27.3,30.18,NNW,335,9.0,9.0,56,0.00,,CLR,0.00,VWS V14.01,2013-04-04 22:30:00,
2013-04-04 17:31:00,41.8,27.3,30.18,NW,323,11.0,11.0,56,0.00,,CLR,0.00,VWS V14.01,2013-04-04 22:31:00,
2013-04-04 17:35:00,41.9,26.5,30.18,NW,326,7.0,9.0,54,0.00,,CLR,0.00,VWS V14.01,2013-04-04 22:35:00,
2013-04-04 17:36:00,41.9,26.5,30.18,NNW,340,7.0,10.0,54,0.00,,CLR,0.00,VWS V14.01,2013-04-04 22:36:00,
2013-04-04 17:40:00,41.6,26.6,30.18,NW,325,7.0,7.0,55,0.00,,CLR,0.00,VWS V14.01,2013-04-04 22:40:00,
2013-04-04 17:41:00,41.8,26.4,30.18,NNW,344,14.0,14.0,54,0.00,,CLR,0.00,VWS V14.01,2013-04-04 22:41:00,
2013-04-04 17:45:00,41.4,26.9,30.18,NW,316,14.0,15.0,56,0.00,,CLR,0.00,VWS V14.01,2013-04-04 22:45:00,
2013-04-04 17:47:00,41.4,26.9,30.18,NNW,333,9.0,9.0,56,0.00,,CLR,0.00,VWS V14.01,2013-04-04 22:47:00,
2013-04-04 17:50:00,41.2,25.8,30.18,WNW,303,10.0,11.0,54,0.00,,CLR,0.00,VWS V14.01,2013-04-04 22:50:00,
2013-04-04 17:52:00,41.3,26.4,30.18,NW,318,8.0,10.0,55,0.00,,CLR,0.00,VWS V14.01,2013-04-04 22:52:00,
2013-04-04 17:55:00,41.0,26.1,30.18,NW,318,7.0,11.0,55,0.00,,CLR,0.00,VWS V14.01,2013-04-04 22:55:00,
2013-04-04 17:57:00,41.1,25.7,30.18,NNW,336,5.0,8.0,54,0.00,,CLR,0.00,VWS V14.01,2013-04-04 22:57:00,
2013-04-04 18:00:00,41.0,26.1,30.18,NNW,332,10.0,10.0,55,0.00,,CLR,0.00,VWS V14.01,2013-04-04 23:00:00,
2013-04-04 18:02:00,41.0,26.1,30.18,NW,306,6.0,10.0,55,0.00,,CLR,0.00,VWS V14.01,2013-04-04 23:02:00,
2013-04-04 18:05:00,40.9,26.0,30.18,NNW,336,6.0,10.0,55,0.00,,CLR,0.00,VWS V14.01,2013-04-04 23:05:00,
2013-04-04 18:07:00,40.9,26.0,30.18,NW,323,5.0,6.0,55,0.00,,CLR,0.00,VWS V14.01,2013-04-04 23:07:00,
2013-04-04 18:10:00,40.9,26.9,30.19,WNW,291,6.0,11.0,57,0.00,,CLR,0.00,VWS V14.01,2013-04-04 23:10:00,
2013-04-04 18:12:00,40.9,26.9,30.19,WNW,303,9.0,9.0,57,0.00,,CLR,0.00,VWS V14.01,2013-04-04 23:12:00,
2013-04-04 18:15:00,40.6,26.6,30.19,NW,319,5.0,8.0,57,0.00,,CLR,0.00,VWS V14.01,2013-04-04 23:15:00,
2013-04-04 18:17:00,40.7,26.7,30.19,NW,306,8.0,8.0,57,0.00,,CLR,0.00,VWS V14.01,2013-04-04 23:17:00,
2013-04-04 18:20:00,40.3,25.9,30.19,NW,307,6.0,6.0,56,0.00,,CLR,0.00,VWS V14.01,2013-04-04 23:20:00,
2013-04-04 18:22:00,40.4,26.0,30.19,NW,311,10.0,10.0,56,0.00,,CLR,0.00,VWS V14.01,2013-04-04 23:22:00,
2013-04-04 18:25:00,39.8,25.4,30.19,NNW,331,6.0,6.0,56,0.00,,CLR,0.00,VWS V14.01,2013-04-04 23:25:00,
2013-04-04 18:27:00,39.9,25.1,30.19,WNW,299,9.0,11.0,55,0.00,,CLR,0.00,VWS V14.01,2013-04-04 23:27:00,
2013-04-04 18:30:00,39.6,25.6,30.19,NW,323,8.0,10.0,57,0.00,,CLR,0.00,VWS V14.01,2013-04-04 23:30:00,
2013-04-04 18:32:00,39.6,24.8,30.19,NW,323,6.0,6.0,55,0.00,,CLR,0.00,VWS V14.01,2013-04-04 23:32:00,
2013-04-04 18:35:00,39.4,25.9,30.20,NW,313,10.0,11.0,58,0.00,,CLR,0.00,VWS V14.01,2013-04-04 23:35:00,
2013-04-04 18:37:00,39.4,25.5,30.20,NW,320,7.0,7.0,57,0.00,,CLR,0.00,VWS V14.01,2013-04-04 23:37:00,
2013-04-04 18:40:00,39.1,25.2,30.20,NW,313,13.0,13.0,57,0.00,,CLR,0.00,VWS V14.01,2013-04-04 23:40:00,
2013-04-04 18:42:00,39.1,25.2,30.20,NW,307,4.0,4.0,57,0.00,,CLR,0.00,VWS V14.01,2013-04-04 23:42:00,
2013-04-04 18:45:00,38.7,24.8,30.20,NW,320,6.0,9.0,57,0.00,,CLR,0.00,VWS V14.01,2013-04-04 23:45:00,
2013-04-04 18:47:00,38.8,24.9,30.20,NW,317,7.0,7.0,57,0.00,,CLR,0.00,VWS V14.01,2013-04-04 23:47:00,
2013-04-04 18:50:00,38.3,24.4,30.20,West,271,10.0,12.0,57,0.00,,CLR,0.00,VWS V14.01,2013-04-04 23:50:00,
2013-04-04 18:52:00,38.4,24.5,30.20,NW,305,10.0,10.0,57,0.00,,CLR,0.00,VWS V14.01,2013-04-04 23:52:00,
2013-04-04 18:55:00,38.1,24.6,30.20,NW,309,6.0,9.0,58,0.00,,CLR,0.00,VWS V14.01,2013-04-04 23:55:00,
2013-04-04 18:58:00,38.2,24.7,30.20,NW,313,5.0,5.0,58,0.00,,CLR,0.00,VWS V14.01,2013-04-04 23:58:00,
2013-04-04 19:00:00,37.9,24.0,30.20,NW,313,8.0,8.0,57,0.00,,CLR,0.00,VWS V14.01,2013-04-05 00:00:00,
2013-04-04 19:03:00,37.9,24.5,30.20,NW,323,6.0,10.0,58,0.00,,CLR,0.00,VWS V14.01,2013-04-05 00:03:00,
2013-04-04 19:05:00,37.6,23.8,30.21,NW,313,4.0,7.0,57,0.00,,CLR,0.00,VWS V14.01,2013-04-05 00:05:00,
2013-04-04 19:08:00,37.7,24.3,30.21,WNW,291,12.0,12.0,58,0.00,,CLR,0.00,VWS V14.01,2013-04-05 00:08:00,
2013-04-04 19:10:00,37.4,24.4,30.21,NW,313,10.0,12.0,59,0.00,,CLR,0.00,VWS V14.01,2013-04-05 00:10:00,
2013-04-04 19:13:00,37.4,24.4,30.21,NNW,331,6.0,10.0,59,0.00,,CLR,0.00,VWS V14.01,2013-04-05 00:13:00,
2013-04-04 19:15:00,37.1,24.5,30.21,NW,319,3.0,3.0,60,0.00,,CLR,0.00,VWS V14.01,2013-04-05 00:15:00,
2013-04-04 19:18:00,37.1,24.5,30.21,NW,314,2.0,4.0,60,0.00,,CLR,0.00,VWS V14.01,2013-04-05 00:18:00,
2013-04-04 19:20:00,36.9,25.1,30.21,NW,319,6.0,6.0,62,0.00,,CLR,0.00,VWS V14.01,2013-04-05 00:20:00,
2013-04-04 19:23:00,36.9,25.1,30.21,NW,321,4.0,5.0,62,0.00,,CLR,0.00,VWS V14.01,2013-04-05 00:23:00,
2013-04-04 19:25:00,36.5,25.1,30.21,NW,307,4.0,11.0,63,0.00,,CLR,0.00,VWS V14.01,2013-04-05 00:25:00,
2013-04-04 19:28:00,36.5,25.1,30.21,WNW,290,9.0,11.0,63,0.00,,CLR,0.00,VWS V14.01,2013-04-05 00:28:00,
2013-04-04 19:30:00,36.1,24.7,30.21,NW,308,5.0,5.0,63,0.00,,CLR,0.00,VWS V14.01,2013-04-05 00:30:00,
2013-04-04 19:33:00,36.1,24.7,30.21,WNW,300,3.0,5.0,63,0.00,,CLR,0.00,VWS V14.01,2013-04-05 00:33:00,
2013-04-04 19:35:00,35.7,24.7,30.21,WNW,286,6.0,6.0,64,0.00,,CLR,0.00,VWS V14.01,2013-04-05 00:35:00,
2013-04-04 19:38:00,35.7,24.7,30.21,WNW,295,6.0,6.0,64,0.00,,CLR,0.00,VWS V14.01,2013-04-05 00:38:00,
2013-04-04 19:40:00,35.5,24.5,30.21,WNW,298,5.0,5.0,64,0.00,,CLR,0.00,VWS V14.01,2013-04-05 00:40:00,
2013-04-04 19:43:00,35.5,24.5,30.21,WNW,298,5.0,5.0,64,0.00,,CLR,0.00,VWS V14.01,2013-04-05 00:43:00,
2013-04-04 19:45:00,35.2,24.6,30.21,NW,322,6.0,7.0,65,0.00,,CLR,0.00,VWS V14.01,2013-04-05 00:45:00,
2013-04-04 19:48:00,35.2,24.6,30.21,NW,322,6.0,7.0,65,0.00,,CLR,0.00,VWS V14.01,2013-04-05 00:48:00,
2013-04-04 19:50:00,34.8,24.2,30.21,NW,310,4.0,5.0,65,0.00,,CLR,0.00,VWS V14.01,2013-04-05 00:50:00,
2013-04-04 19:53:00,34.8,24.2,30.21,NW,310,4.0,5.0,65,0.00,,CLR,0.00,VWS V14.01,2013-04-05 00:53:00,
2013-04-04 19:55:00,34.5,24.3,30.21,WNW,303,5.0,7.0,66,0.00,,CLR,0.00,VWS V14.01,2013-04-05 00:55:00,
2013-04-04 19:59:00,34.5,24.3,30.21,WNW,303,5.0,7.0,66,0.00,,CLR,0.00,VWS V14.01,2013-04-05 00:59:00,
2013-04-04 20:00:00,34.4,24.6,30.21,NW,309,4.0,5.0,67,0.00,,CLR,0.00,VWS V14.01,2013-04-05 01:00:00,
2013-04-04 20:04:00,34.4,24.6,30.21,NW,309,5.0,5.0,67,0.00,,CLR,0.00,VWS V14.01,2013-04-05 01:04:00,
2013-04-04 20:05:00,34.2,24.4,30.21,WNW,295,1.0,3.0,67,0.00,,CLR,0.00,VWS V14.01,2013-04-05 01:05:00,
2013-04-04 20:09:00,34.1,24.3,30.21,WNW,294,6.0,6.0,67,0.00,,CLR,0.00,VWS V14.01,2013-04-05 01:09:00,
2013-04-04 20:10:00,34.1,24.3,30.21,NW,305,4.0,5.0,67,0.00,,CLR,0.00,VWS V14.01,2013-04-05 01:10:00,
2013-04-04 20:14:00,34.0,24.2,30.22,NW,304,4.0,6.0,67,0.00,,CLR,0.00,VWS V14.01,2013-04-05 01:14:00,
2013-04-04 20:15:00,33.9,24.1,30.22,WNW,297,3.0,5.0,67,0.00,,CLR,0.00,VWS V14.01,2013-04-05 01:15:00,
2013-04-04 20:19:00,33.8,24.0,30.22,WNW,298,4.0,4.0,67,0.00,,CLR,0.00,VWS V14.01,2013-04-05 01:19:00,
2013-04-04 20:20:00,33.6,24.2,30.22,WNW,302,2.0,3.0,68,0.00,,CLR,0.00,VWS V14.01,2013-04-05 01:20:00,
2013-04-04 20:24:00,33.6,24.2,30.22,NW,304,2.0,4.0,68,0.00,,CLR,0.00,VWS V14.01,2013-04-05 01:24:00,
2013-04-04 20:25:00,33.3,23.9,30.22,NW,309,4.0,4.0,68,0.00,,CLR,0.00,VWS V14.01,2013-04-05 01:25:00,
2013-04-04 20:29:00,33.3,23.9,30.22,NW,311,3.0,3.0,68,0.00,,CLR,0.00,VWS V14.01,2013-04-05 01:29:00,
2013-04-04 20:30:00,33.2,24.1,30.22,NW,311,6.0,6.0,69,0.00,,CLR,0.00,VWS V14.01,2013-04-05 01:30:00,
2013-04-04 20:34:00,33.1,24.0,30.22,NW,305,3.0,4.0,69,0.00,,CLR,0.00,VWS V14.01,2013-04-05 01:34:00,
2013-04-04 20:35:00,33.0,24.0,30.22,NW,317,3.0,4.0,69,0.00,,CLR,0.00,VWS V14.01,2013-04-05 01:35:00,
2013-04-04 20:39:00,33.0,24.0,30.22,NW,307,3.0,6.0,69,0.00,,CLR,0.00,VWS V14.01,2013-04-05 01:39:00,
2013-04-04 20:40:00,32.8,24.1,30.23,NW,313,4.0,5.0,70,0.00,,CLR,0.00,VWS V14.01,2013-04-05 01:40:00,
2013-04-04 20:44:00,32.7,24.0,30.23,NW,312,7.0,7.0,70,0.00,,CLR,0.00,VWS V14.01,2013-04-05 01:44:00,
2013-04-04 20:45:00,32.6,23.9,30.23,NW,305,5.0,7.0,70,0.00,,CLR,0.00,VWS V14.01,2013-04-05 01:45:00,
2013-04-04 20:49:00,32.6,23.9,30.23,NW,304,3.0,3.0,70,0.00,,CLR,0.00,VWS V14.01,2013-04-05 01:49:00,
2013-04-04 20:50:00,32.5,23.8,30.23,WNW,302,4.0,7.0,70,0.00,,CLR,0.00,VWS V14.01,2013-04-05 01:50:00,
2013-04-04 20:54:00,32.5,24.2,30.23,NW,312,5.0,5.0,71,0.00,,CLR,0.00,VWS V14.01,2013-04-05 01:54:00,
2013-04-04 20:55:00,32.3,24.0,30.24,NW,309,7.0,7.0,71,0.00,,CLR,0.00,VWS V14.01,2013-04-05 01:55:00,
2013-04-04 21:00:00,32.3,24.0,30.24,NW,311,5.0,5.0,71,0.00,,CLR,0.00,VWS V14.01,2013-04-05 02:00:00,
2013-04-04 21:05:00,32.1,23.8,30.24,WNW,300,5.0,6.0,71,0.00,,CLR,0.00,VWS V14.01,2013-04-05 02:05:00,
2013-04-04 21:10:00,32.0,25.3,30.23,NW,317,5.0,5.0,76,0.00,,CLR,0.00,VWS V14.01,2013-04-05 02:10:00,
2013-04-04 21:15:00,31.9,23.6,30.23,NW,313,2.0,5.0,71,0.00,,CLR,0.00,VWS V14.01,2013-04-05 02:15:00,
2013-04-04 21:20:00,31.7,23.7,30.24,NW,311,3.0,4.0,72,0.00,,CLR,0.00,VWS V14.01,2013-04-05 02:20:00,
2013-04-04 21:25:00,31.6,23.6,30.24,NW,317,3.0,5.0,72,0.00,,CLR,0.00,VWS V14.01,2013-04-05 02:25:00,
2013-04-04 21:30:00,31.5,23.5,30.24,NW,307,4.0,4.0,72,0.00,,CLR,0.00,VWS V14.01,2013-04-05 02:30:00,
2013-04-04 21:35:00,31.4,23.8,30.24,NW,320,4.0,4.0,73,0.00,,CLR,0.00,VWS V14.01,2013-04-05 02:35:00,
2013-04-04 21:40:00,31.3,23.7,30.24,WNW,290,6.0,7.0,73,0.00,,CLR,0.00,VWS V14.01,2013-04-05 02:40:00,
2013-04-04 21:45:00,31.1,23.5,30.24,NW,313,3.0,3.0,73,0.00,,CLR,0.00,VWS V14.01,2013-04-05 02:45:00,
2013-04-04 21:50:00,30.9,23.3,30.24,NW,313,4.0,6.0,73,0.00,,CLR,0.00,VWS V14.01,2013-04-05 02:50:00,
2013-04-04 21:51:00,31.0,23.4,30.24,NW,307,4.0,5.0,73,0.00,,CLR,0.00,VWS V14.01,2013-04-05 02:51:00,
2013-04-04 21:55:00,30.9,23.3,30.24,NW,317,4.0,4.0,73,0.00,,CLR,0.00,VWS V14.01,2013-04-05 02:55:00,
2013-04-04 21:56:00,30.9,23.3,30.24,NW,315,2.0,3.0,73,0.00,,CLR,0.00,VWS V14.01,2013-04-05 02:56:00,
2013-04-04 22:00:00,30.7,23.1,30.25,NW,309,4.0,4.0,73,0.00,,CLR,0.00,VWS V14.01,2013-04-05 03:00:00,
2013-04-04 22:01:00,30.8,23.2,30.25,NW,309,5.0,5.0,73,0.00,,CLR,0.00,VWS V14.01,2013-04-05 03:01:00,
2013-04-04 22:05:00,30.5,22.9,30.24,NW,309,2.0,3.0,73,0.00,,CLR,0.00,VWS V14.01,2013-04-05 03:05:00,
2013-04-04 22:06:00,30.6,23.0,30.24,NW,309,3.0,4.0,73,0.00,,CLR,0.00,VWS V14.01,2013-04-05 03:06:00,
2013-04-04 22:10:00,30.3,22.7,30.24,NW,310,3.0,5.0,73,0.00,,CLR,0.00,VWS V14.01,2013-04-05 03:10:00,
2013-04-04 22:11:00,30.4,22.8,30.25,NW,310,2.0,3.0,73,0.00,,CLR,0.00,VWS V14.01,2013-04-05 03:11:00,
2013-04-04 22:15:00,30.2,22.9,30.25,NW,310,4.0,4.0,74,0.00,,CLR,0.00,VWS V14.01,2013-04-05 03:15:00,
2013-04-04 22:16:00,30.2,22.9,30.24,NW,305,5.0,5.0,74,0.00,,CLR,0.00,VWS V14.01,2013-04-05 03:16:00,
2013-04-04 22:20:00,30.1,22.5,30.25,NW,308,4.0,5.0,73,0.00,,CLR,0.00,VWS V14.01,2013-04-05 03:20:00,
2013-04-04 22:21:00,30.1,22.5,30.25,NW,307,2.0,3.0,73,0.00,,CLR,0.00,VWS V14.01,2013-04-05 03:21:00,
2013-04-04 22:25:00,29.9,22.6,30.25,WNW,299,2.0,3.0,74,0.00,,CLR,0.00,VWS V14.01,2013-04-05 03:25:00,
2013-04-04 22:26:00,29.9,22.6,30.25,WNW,293,4.0,4.0,74,0.00,,CLR,0.00,VWS V14.01,2013-04-05 03:26:00,
2013-04-04 22:30:00,29.7,22.4,30.25,WNW,303,4.0,4.0,74,0.00,,CLR,0.00,VWS V14.01,2013-04-05 03:30:00,
2013-04-04 22:31:00,29.8,22.5,30.25,WNW,303,3.0,5.0,74,0.00,,CLR,0.00,VWS V14.01,2013-04-05 03:31:00,
2013-04-04 22:35:00,29.6,22.3,30.25,NW,309,4.0,4.0,74,0.00,,CLR,0.00,VWS V14.01,2013-04-05 03:35:00,
2013-04-04 22:37:00,29.6,22.4,30.25,NW,314,2.0,3.0,74,0.00,,CLR,0.00,VWS V14.01,2013-04-05 03:37:00,
2013-04-04 22:40:00,29.5,22.2,30.25,NW,313,2.0,4.0,74,0.00,,CLR,0.00,VWS V14.01,2013-04-05 03:40:00,
2013-04-04 22:42:00,29.6,22.4,30.25,NW,322,2.0,3.0,74,0.00,,CLR,0.00,VWS V14.01,2013-04-05 03:42:00,
2013-04-04 22:45:00,29.3,22.4,30.25,NW,313,2.0,4.0,75,0.00,,CLR,0.00,VWS V14.01,2013-04-05 03:45:00,
2013-04-04 22:47:00,29.4,22.5,30.25,NW,313,2.0,3.0,75,0.00,,CLR,0.00,VWS V14.01,2013-04-05 03:47:00,
2013-04-04 22:50:00,29.2,22.0,30.25,NW,313,3.0,3.0,74,0.00,,CLR,0.00,VWS V14.01,2013-04-05 03:50:00,
2013-04-04 22:52:00,29.2,22.0,30.25,NW,313,3.0,3.0,74,0.00,,CLR,0.00,VWS V14.01,2013-04-05 03:52:00,
2013-04-04 22:55:00,29.2,22.0,30.26,NW,313,3.0,4.0,74,0.00,,CLR,0.00,VWS V14.01,2013-04-05 03:55:00,
2013-04-04 22:57:00,29.2,22.0,30.26,NW,313,3.0,4.0,74,0.00,,CLR,0.00,VWS V14.01,2013-04-05 03:57:00,
2013-04-04 23:00:00,29.2,22.0,30.26,NW,313,1.0,3.0,74,0.00,,CLR,0.00,VWS V14.01,2013-04-05 04:00:00,
2013-04-04 23:01:00,29.1,21.9,30.26,NW,314,3.0,3.0,74,0.00,,CLR,0.00,VWS V14.01,2013-04-05 04:01:00,
2013-04-04 23:05:00,28.9,21.7,30.26,NW,315,3.0,3.0,74,0.00,,CLR,0.00,VWS V14.01,2013-04-05 04:05:00,
2013-04-04 23:07:00,29.0,22.1,30.26,NW,315,3.0,4.0,75,0.00,,CLR,0.00,VWS V14.01,2013-04-05 04:07:00,
2013-04-04 23:10:00,28.8,21.9,30.26,NW,326,5.0,5.0,75,0.00,,CLR,0.00,VWS V14.01,2013-04-05 04:10:00,
2013-04-04 23:12:00,28.9,22.0,30.26,NW,326,2.0,3.0,75,0.00,,CLR,0.00,VWS V14.01,2013-04-05 04:12:00,
2013-04-04 23:15:00,28.7,21.8,30.26,NW,313,5.0,5.0,75,0.00,,CLR,0.00,VWS V14.01,2013-04-05 04:15:00,
2013-04-04 23:17:00,28.7,21.8,30.26,NW,319,4.0,4.0,75,0.00,,CLR,0.00,VWS V14.01,2013-04-05 04:17:00,
2013-04-04 23:20:00,28.6,21.7,30.26,NW,323,3.0,4.0,75,0.00,,CLR,0.00,VWS V14.01,2013-04-05 04:20:00,
2013-04-04 23:22:00,28.6,21.7,30.26,NW,314,4.0,4.0,75,0.00,,CLR,0.00,VWS V14.01,2013-04-05 04:22:00,
2013-04-04 23:25:00,28.5,21.6,30.26,NW,315,5.0,5.0,75,0.00,,CLR,0.00,VWS V14.01,2013-04-05 04:25:00,
2013-04-04 23:27:00,28.5,21.6,30.26,NW,321,5.0,5.0,75,0.00,,CLR,0.00,VWS V14.01,2013-04-05 04:27:00,
2013-04-04 23:30:00,28.5,21.3,30.26,NW,315,4.0,5.0,74,0.00,,CLR,0.00,VWS V14.01,2013-04-05 04:30:00,
2013-04-04 23:32:00,28.5,21.3,30.26,NW,315,4.0,5.0,74,0.00,,CLR,0.00,VWS V14.01,2013-04-05 04:32:00,
2013-04-04 23:35:00,28.5,21.3,30.26,NW,319,4.0,5.0,74,0.00,,CLR,0.00,VWS V14.01,2013-04-05 04:35:00,
2013-04-04 23:37:00,28.5,21.3,30.26,NW,313,5.0,5.0,74,0.00,,CLR,0.00,VWS V14.01,2013-04-05 04:37:00,
2013-04-04 23:40:00,28.5,21.3,30.26,NNW,341,7.0,7.0,74,0.00,,CLR,0.00,VWS V14.01,2013-04-05 04:40:00,
2013-04-04 23:42:00,28.5,21.3,30.26,NW,315,5.0,6.0,74,0.00,,CLR,0.00,VWS V14.01,2013-04-05 04:42:00,
2013-04-04 23:45:00,28.5,21.3,30.26,NW,326,5.0,5.0,74,0.00,,CLR,0.00,VWS V14.01,2013-04-05 04:45:00,
2013-04-04 23:47:00,28.5,21.3,30.26,NNW,327,4.0,5.0,74,0.00,,CLR,0.00,VWS V14.01,2013-04-05 04:47:00,
2013-04-04 23:50:00,28.5,21.0,30.26,NW,307,5.0,5.0,73,0.00,,CLR,0.00,VWS V14.01,2013-04-05 04:50:00,
2013-04-04 23:52:00,28.5,21.0,30.26,NNW,329,3.0,3.0,73,0.00,,CLR,0.00,VWS V14.01,2013-04-05 04:52:00,
2013-04-04 23:55:00,28.3,20.8,30.27,NW,317,3.0,4.0,73,0.00,,CLR,0.00,VWS V14.01,2013-04-05 04:55:00,
2013-04-04 23:57:00,28.4,20.9,30.27,NW,317,4.0,4.0,73,0.00,,CLR,0.00,VWS V14.01,2013-04-05 04:57:00,